Time;durP1;ratioP1;P1;durP2;ratioP2;P2;SDS_P1;SDS_P2;PMS_P1;PMS_P2;Temp;Humidity;BMP_temperature;BMP_pressure;BME280_temperature;BME280_humidity;BME280_pressure;Samples;Min_cycle;Max_cycle;Signal;HPM_P1;HPM_P2
2024/01/25 00:02:03;;;;;;;29.67;4.50;;;;;;;12.09;66.25;102920.31;5052140;28;20071;-44
2024/01/25 00:04:28;;;;;;;37.50;4.85;;;;;;;12.19;66.38;102914.66;5052632;28;20025;-45
2024/01/25 00:06:53;;;;;;;28.88;4.15;;;;;;;11.86;66.87;102901.94;5050649;28;20033;-48
2024/01/25 00:09:18;;;;;;;30.98;4.43;;;;;;;11.90;67.08;102902.13;5051488;28;20033;-45
2024/01/25 00:11:44;;;;;;;29.58;4.30;;;;;;;12.20;65.99;102900.72;5052513;28;20073;-46
2024/01/25 00:14:09;;;;;;;28.50;3.92;;;;;;;11.62;67.85;102912.25;5052881;28;20583;-47
2024/01/25 00:16:34;;;;;;;35.92;4.10;;;;;;;11.91;67.20;102900.41;5050736;28;20040;-50
2024/01/25 00:19:00;;;;;;;35.72;4.28;;;;;;;11.94;66.49;102897.94;5052270;28;20033;-49
2024/01/25 00:21:25;;;;;;;42.53;5.28;;;;;;;11.75;67.42;102888.47;5052445;28;20071;-46
2024/01/25 00:23:50;;;;;;;36.05;4.45;;;;;;;11.48;67.61;102884.66;5051885;28;20067;-46
2024/01/25 00:26:16;;;;;;;30.42;4.60;;;;;;;11.67;67.47;102895.03;5051863;28;20320;-50
2024/01/25 00:28:41;;;;;;;37.22;4.72;;;;;;;11.71;67.32;102902.19;5052366;28;20082;-47
2024/01/25 00:31:06;;;;;;;35.03;4.40;;;;;;;11.68;66.73;102902.94;5052055;28;22593;-46
2024/01/25 00:33:31;;;;;;;27.88;5.05;;;;;;;11.46;68.15;102895.06;5052153;28;20057;-46
2024/01/25 00:35:57;;;;;;;36.42;4.47;;;;;;;11.89;65.91;102894.25;5051271;28;20080;-43
2024/01/25 00:38:22;;;;;;;25.00;4.32;;;;;;;11.75;66.17;102894.56;5052146;28;20124;-48
2024/01/25 00:40:48;;;;;;;23.77;3.80;;;;;;;11.79;66.10;102913.88;5051563;28;20466;-48
2024/01/25 00:43:14;;;;;;;28.00;4.25;;;;;;;11.44;67.27;102904.56;5052183;28;20052;-49
2024/01/25 00:45:39;;;;;;;25.58;3.78;;;;;;;11.59;66.78;102906.88;5051802;28;20037;-48
2024/01/25 00:48:05;;;;;;;32.03;4.03;;;;;;;11.48;67.18;102908.16;5051242;28;20041;-48
2024/01/25 00:50:31;;;;;;;35.15;3.88;;;;;;;11.58;66.66;102899.91;5051949;28;20032;-45
2024/01/25 00:52:56;;;;;;;32.97;4.22;;;;;;;11.33;68.23;102890.16;5051445;28;20498;-47
2024/01/25 00:55:22;;;;;;;35.03;4.10;;;;;;;11.58;66.50;102889.47;5052116;28;20025;-48
2024/01/25 00:57:48;;;;;;;30.25;4.00;;;;;;;11.59;66.79;102892.09;5052026;28;20091;-49
2024/01/25 01:00:14;;;;;;;26.08;4.00;;;;;;;11.50;67.30;102898.69;5052699;28;20028;-47
2024/01/25 01:02:43;;;;;;;28.63;4.47;;;;;;;11.29;67.97;102894.34;5053362;28;20051;-49
2024/01/25 01:05:09;;;;;;;34.53;4.68;;;;;;;11.57;67.40;102895.50;5053127;28;20033;-49
2024/01/25 01:07:35;;;;;;;33.67;4.70;;;;;;;11.57;67.27;102903.34;5054230;28;20044;-53
2024/01/25 01:10:01;;;;;;;31.05;4.60;;;;;;;11.31;67.84;102921.41;5072385;28;20037;-48
2024/01/25 01:12:26;;;;;;;32.35;4.63;;;;;;;11.50;67.61;102924.81;5073109;28;20063;-48
2024/01/25 01:14:51;;;;;;;27.90;3.97;;;;;;;11.81;66.24;102919.16;5064297;28;20551;-44
2024/01/25 01:17:18;;;;;;;31.63;4.80;;;;;;;11.66;66.65;102929.84;5049576;28;20040;-44
2024/01/25 01:19:44;;;;;;;31.20;4.00;;;;;;;11.24;68.13;102944.56;5051379;28;20075;-47
2024/01/25 01:22:09;;;;;;;32.33;3.97;;;;;;;11.17;68.61;102947.75;5050748;28;20032;-46
2024/01/25 01:24:34;;;;;;;22.70;3.83;;;;;;;11.44;67.60;102948.06;5051043;28;20039;-46
2024/01/25 01:27:00;;;;;;;30.83;4.38;;;;;;;11.59;67.15;102941.75;5049677;28;20044;-46
2024/01/25 01:29:25;;;;;;;32.75;4.47;;;;;;;11.84;66.17;102942.78;5049478;28;20044;-46
2024/01/25 01:31:50;;;;;;;29.65;4.50;;;;;;;11.65;66.49;102951.56;5050457;28;20556;-47
2024/01/25 01:34:17;;;;;;;26.42;4.65;;;;;;;11.46;67.42;102949.91;5051044;28;20116;-45
2024/01/25 01:36:43;;;;;;;29.90;4.57;;;;;;;11.04;68.89;102966.31;5050532;28;20032;-45
2024/01/25 01:39:08;;;;;;;29.65;4.35;;;;;;;11.08;69.14;102968.22;5050515;28;20627;-47
2024/01/25 01:41:34;;;;;;;29.38;4.15;;;;;;;11.50;67.74;102977.94;5050777;28;20029;-46
2024/01/25 01:43:59;;;;;;;25.58;4.10;;;;;;;11.24;68.18;102979.41;5050484;28;20491;-47
2024/01/25 01:46:42;;;;;;;38.95;4.68;;;;;;;11.32;68.09;102984.97;5050134;28;20033;-48
2024/01/25 01:49:10;;;;;;;31.10;4.22;;;;;;;11.58;67.53;102980.91;5048683;28;20041;-46
2024/01/25 01:51:39;;;;;;;28.90;4.25;;;;;;;11.27;68.28;102973.44;5050425;28;20064;-47
2024/01/25 01:54:08;;;;;;;33.65;4.32;;;;;;;11.12;68.94;102986.69;5050285;28;20056;-45
2024/01/25 01:56:34;;;;;;;30.15;4.70;;;;;;;11.13;69.82;102983.28;5049959;28;20074;-45
2024/01/25 01:59:04;;;;;;;33.13;4.93;;;;;;;11.33;68.36;102979.84;5050068;28;20120;-45
2024/01/25 02:01:30;;;;;;;29.60;4.50;;;;;;;11.04;69.54;102974.16;5048773;28;20033;-48
2024/01/25 02:03:56;;;;;;;33.88;4.40;;;;;;;11.13;69.71;102975.44;5049705;28;20526;-47
2024/01/25 02:06:23;;;;;;;32.60;3.92;;;;;;;11.36;68.47;102981.66;5049592;28;20036;-45
2024/01/25 02:08:50;;;;;;;30.52;4.18;;;;;;;11.28;69.34;102978.72;5080169;22;20040;-43
2024/01/25 02:11:16;;;;;;;38.85;4.95;;;;;;;11.31;68.10;102973.63;5069840;28;20039;-42
2024/01/25 02:13:41;;;;;;;37.88;4.38;;;;;;;11.26;68.86;102969.94;5069968;28;20115;-42
2024/01/25 02:16:07;;;;;;;36.67;4.32;;;;;;;11.24;68.24;102970.69;5069544;28;20070;-44
2024/01/25 02:18:33;;;;;;;31.38;4.45;;;;;;;11.20;68.89;102969.69;5072737;28;20033;-44
2024/01/25 02:20:58;;;;;;;40.88;4.70;;;;;;;11.12;68.99;102964.94;5072408;28;20041;-42
2024/01/25 02:23:24;;;;;;;36.50;4.68;;;;;;;11.18;68.49;102971.31;5074268;28;20036;-42
2024/01/25 02:25:49;;;;;;;33.95;4.53;;;;;;;11.29;68.43;102977.00;5073222;28;20545;-42
2024/01/25 02:28:14;;;;;;;24.77;3.92;;;;;;;11.07;68.93;102966.44;5072007;28;20041;-42
2024/01/25 02:30:39;;;;;;;35.42;4.15;;;;;;;11.15;68.12;102973.81;5070423;28;20120;-42
2024/01/25 02:33:05;;;;;;;35.90;5.18;;;;;;;11.11;68.26;102977.09;5069766;28;20063;-46
2024/01/25 02:35:30;;;;;;;29.13;3.80;;;;;;;11.18;67.88;102980.84;5072071;28;20033;-44
2024/01/25 02:37:55;;;;;;;35.80;4.60;;;;;;;11.08;68.45;102976.06;5071652;28;20040;-42
2024/01/25 02:40:21;;;;;;;30.90;3.80;;;;;;;11.21;67.96;102978.41;5071939;28;20407;-42
2024/01/25 02:42:46;;;;;;;38.22;4.55;;;;;;;10.97;68.48;102978.19;5069734;28;20039;-43
2024/01/25 02:45:11;;;;;;;33.35;4.40;;;;;;;10.94;68.80;102978.03;5068834;28;20035;-43
2024/01/25 02:47:36;;;;;;;33.03;4.10;;;;;;;11.15;68.10;102985.97;5069026;28;20025;-43
2024/01/25 02:50:02;;;;;;;33.10;4.43;;;;;;;11.09;68.73;102989.19;5069168;28;20043;-45
2024/01/25 02:52:27;;;;;;;31.58;4.22;;;;;;;10.96;68.68;102989.47;5069399;28;20178;-41
2024/01/25 02:54:52;;;;;;;36.40;3.92;;;;;;;11.01;68.53;102982.72;5069171;28;20490;-42
2024/01/25 02:57:18;;;;;;;32.55;4.25;;;;;;;11.05;68.75;102995.06;5068999;28;20028;-46
2024/01/25 02:59:43;;;;;;;34.80;4.15;;;;;;;11.17;67.40;102987.78;5069483;28;20047;-42
2024/01/25 03:02:09;;;;;;;25.23;4.55;;;;;;;10.98;67.62;102999.13;5069003;28;20120;-45
2024/01/25 03:04:34;;;;;;;30.25;4.40;;;;;;;10.94;68.60;102998.94;5069274;28;20032;-42
2024/01/25 03:06:59;;;;;;;31.90;4.68;;;;;;;10.77;69.88;102985.13;5068253;28;20033;-41
2024/01/25 03:09:24;;;;;;;33.58;4.28;;;;;;;10.75;69.71;102989.34;5069294;28;20065;-46
2024/01/25 03:11:50;;;;;;;28.48;4.35;;;;;;;11.01;69.19;102992.28;5068720;28;20035;-41
2024/01/25 03:14:15;;;;;;;35.05;4.60;;;;;;;10.97;68.86;102989.53;5069321;28;20054;-43
2024/01/25 03:16:41;;;;;;;27.63;3.75;;;;;;;11.18;67.54;102991.31;5069016;28;20033;-42
2024/01/25 03:19:06;;;;;;;27.90;3.83;;;;;;;11.11;67.25;102997.06;5068800;28;20434;-44
2024/01/25 03:21:31;;;;;;;32.72;4.63;;;;;;;10.88;68.65;103006.47;5068888;28;20068;-43
2024/01/25 03:23:56;;;;;;;27.85;4.28;;;;;;;10.88;67.83;103007.38;5069566;28;20521;-43
2024/01/25 03:26:22;;;;;;;35.40;3.90;;;;;;;10.88;68.43;102994.31;5072792;28;20028;-41
2024/01/25 03:28:47;;;;;;;23.35;3.70;;;;;;;10.80;69.00;102986.94;5073441;28;20067;-40
2024/01/25 03:31:12;;;;;;;31.67;3.90;;;;;;;10.77;69.64;102987.72;5064625;28;20688;-42
2024/01/25 03:33:38;;;;;;;33.22;4.20;;;;;;;10.87;68.24;102987.31;5074238;28;20133;-42
2024/01/25 03:36:04;;;;;;;34.25;4.57;;;;;;;10.68;68.56;102991.59;5073753;28;20119;-42
2024/01/25 03:38:30;;;;;;;34.03;4.25;;;;;;;10.71;68.70;102991.75;5073798;28;20032;-45
2024/01/25 03:40:58;;;;;;;26.02;4.13;;;;;;;10.66;68.49;102978.50;5072653;28;20410;-44
2024/01/25 03:43:27;;;;;;;25.85;4.28;;;;;;;10.60;68.06;102983.44;5073140;28;20450;-39
2024/01/25 03:45:52;;;;;;;22.13;3.60;;;;;;;10.51;68.09;102983.91;5072206;28;20036;-41
2024/01/25 03:48:17;;;;;;;23.90;3.92;;;;;;;10.37;68.63;102981.47;5072374;28;20137;-43
2024/01/25 03:50:43;;;;;;;24.63;4.45;;;;;;;10.37;68.97;102979.72;5073164;28;20044;-46
2024/01/25 03:53:08;;;;;;;29.45;3.53;;;;;;;10.35;68.68;102986.59;5074142;28;20770;-47
2024/01/25 03:55:34;;;;;;;28.77;4.25;;;;;;;10.23;68.65;102988.63;5074756;28;20037;-44
2024/01/25 03:57:59;;;;;;;23.73;3.90;;;;;;;10.18;68.61;102987.53;5074191;28;20032;-41
2024/01/25 04:00:24;;;;;;;19.23;3.22;;;;;;;10.12;68.11;102976.75;5073338;28;20040;-41
2024/01/25 04:02:50;;;;;;;34.92;5.00;;;;;;;10.06;69.23;102973.84;5072443;28;20032;-42
2024/01/25 04:05:15;;;;;;;33.83;4.40;;;;;;;10.05;70.13;102972.97;5072454;28;20063;-44
2024/01/25 04:07:41;;;;;;;24.23;3.95;;;;;;;10.08;69.19;102980.91;5072473;28;20040;-41
2024/01/25 04:10:06;;;;;;;24.55;4.25;;;;;;;10.07;69.16;102988.66;5074107;28;20147;-41
2024/01/25 04:12:33;;;;;;;29.17;4.18;;;;;;;10.08;70.01;102987.84;5076535;28;20518;-41
2024/01/25 04:14:58;;;;;;;21.67;3.45;;;;;;;10.11;69.23;102988.91;5080262;28;20495;-41
2024/01/25 04:17:23;;;;;;;25.52;3.88;;;;;;;10.08;69.16;102996.53;5088924;28;20101;-44
2024/01/25 04:19:49;;;;;;;20.23;3.33;;;;;;;10.01;69.17;102996.16;5092204;28;20086;-47
2024/01/25 04:22:14;;;;;;;22.58;3.40;;;;;;;9.96;68.97;102990.72;5079308;28;20564;-43
2024/01/25 04:24:40;;;;;;;27.88;4.18;;;;;;;9.82;69.48;102983.94;5074312;28;20028;-41
2024/01/25 04:27:05;;;;;;;24.40;3.53;;;;;;;9.76;69.71;102983.63;5072429;28;20045;-41
2024/01/25 04:29:31;;;;;;;34.35;4.35;;;;;;;9.84;69.90;102982.31;5072554;28;20074;-44
2024/01/25 04:31:56;;;;;;;25.33;4.38;;;;;;;9.84;70.70;102982.31;5071679;28;20123;-42
2024/01/25 04:34:21;;;;;;;24.90;3.97;;;;;;;9.89;69.99;102983.44;5071789;28;20031;-42
2024/01/25 04:36:47;;;;;;;31.45;3.95;;;;;;;9.89;69.65;102996.44;5070626;28;20029;-42
2024/01/25 04:39:12;;;;;;;29.20;3.83;;;;;;;9.90;69.78;102992.13;5071679;28;20039;-42
2024/01/25 04:41:37;;;;;;;23.27;3.95;;;;;;;9.86;69.49;102985.91;5071967;28;20578;-44
2024/01/25 04:44:04;;;;;;;22.63;3.40;;;;;;;9.81;69.60;102982.16;5070629;28;20036;-41
2024/01/25 04:46:34;;;;;;;25.17;3.90;;;;;;;9.82;69.87;102985.69;5071160;28;20035;-42
2024/01/25 04:49:00;;;;;;;26.65;3.67;;;;;;;9.76;69.88;102984.53;5071174;28;20387;-42
2024/01/25 04:51:25;;;;;;;25.83;3.72;;;;;;;9.72;69.93;102990.41;5071715;28;20107;-42
2024/01/25 04:53:50;;;;;;;37.42;4.47;;;;;;;9.70;70.22;102986.81;5071505;28;20032;-42
2024/01/25 04:56:16;;;;;;;37.35;4.25;;;;;;;9.70;70.76;102983.31;5071239;28;20448;-42
2024/01/25 04:58:41;;;;;;;29.33;4.03;;;;;;;9.75;70.75;102982.75;5071658;28;20037;-44
2024/01/25 05:01:07;;;;;;;31.73;4.30;;;;;;;9.77;70.52;102988.91;5071054;28;20119;-45
2024/01/25 05:03:32;;;;;;;26.13;3.90;;;;;;;9.76;70.56;102984.53;5071508;28;20372;-42
2024/01/25 05:05:58;;;;;;;25.83;3.85;;;;;;;9.74;70.42;102986.19;5071021;28;20033;-44
2024/01/25 05:08:23;;;;;;;21.58;3.50;;;;;;;9.73;70.27;102993.91;5071055;28;20182;-43
2024/01/25 05:10:48;;;;;;;24.83;3.90;;;;;;;9.70;70.27;102999.84;5071002;28;20078;-42
2024/01/25 05:13:14;;;;;;;32.10;4.95;;;;;;;9.61;71.19;103012.41;5071523;28;20028;-43
2024/01/25 05:15:39;;;;;;;27.38;4.00;;;;;;;9.68;70.42;103006.72;5071015;28;20458;-41
2024/01/25 05:18:05;;;;;;;35.83;4.13;;;;;;;9.64;70.82;103019.47;5070583;28;20043;-42
2024/01/25 05:20:36;;;;;;;38.63;4.95;;;;;;;9.65;71.12;103016.94;5071211;28;20029;-43
2024/01/25 05:23:02;;;;;;;23.17;3.58;;;;;;;9.66;70.38;103025.66;5071019;28;20040;-41
2024/01/25 05:25:28;;;;;;;26.25;3.80;;;;;;;9.63;70.58;103030.72;5071013;28;20455;-43
2024/01/25 05:27:54;;;;;;;28.67;3.53;;;;;;;9.60;70.52;103038.38;5070151;28;20063;-42
2024/01/25 05:30:20;;;;;;;28.30;3.92;;;;;;;9.62;70.55;103036.75;5070775;28;20056;-42
2024/01/25 05:32:48;;;;;;;29.05;3.78;;;;;;;9.62;70.52;103034.16;5070760;28;20138;-41
2024/01/25 05:35:13;;;;;;;34.67;5.00;;;;;;;9.62;70.80;103022.03;5062161;28;20029;-41
2024/01/25 05:37:39;;;;;;;25.15;3.60;;;;;;;9.60;70.86;103012.31;5070598;28;20740;-43
2024/01/25 05:40:05;;;;;;;34.90;4.20;;;;;;;9.59;70.89;103016.63;5070426;28;20461;-42
2024/01/25 05:42:30;;;;;;;31.45;4.70;;;;;;;9.58;70.94;103025.25;5071320;28;20494;-41
2024/01/25 05:44:56;;;;;;;34.17;5.65;;;;;;;9.57;70.85;103015.69;5070284;28;20073;-44
2024/01/25 05:47:21;;;;;;;24.17;3.83;;;;;;;9.56;70.56;103015.59;5068759;28;20367;-42
2024/01/25 05:49:46;;;;;;;21.92;4.22;;;;;;;9.52;70.43;103013.63;5070675;28;20064;-41
2024/01/25 05:52:12;;;;;;;37.05;4.78;;;;;;;9.51;71.28;103006.66;5070073;28;20395;-45
2024/01/25 05:54:37;;;;;;;33.60;4.38;;;;;;;9.50;71.07;103010.06;5070564;28;20498;-43
2024/01/25 05:57:03;;;;;;;29.02;3.80;;;;;;;9.50;70.62;103018.78;5069591;28;20044;-41
2024/01/25 05:59:29;;;;;;;33.42;4.47;;;;;;;9.41;71.05;103028.69;5070352;28;20045;-42
2024/01/25 06:01:54;;;;;;;26.95;4.38;;;;;;;9.42;71.73;103029.59;5070048;28;20036;-42
2024/01/25 06:04:20;;;;;;;22.75;4.43;;;;;;;9.44;71.65;103038.41;5070554;28;20370;-45
2024/01/25 06:06:45;;;;;;;28.20;4.35;;;;;;;9.45;71.54;103038.50;5069922;28;20098;-43
2024/01/25 06:09:11;;;;;;;25.83;4.38;;;;;;;9.45;71.70;103025.47;5069992;28;20089;-42
2024/01/25 06:11:37;;;;;;;30.17;5.35;;;;;;;9.41;71.32;103022.59;5070483;28;20127;-41
2024/01/25 06:14:04;;;;;;;34.75;4.95;;;;;;;9.41;71.19;103020.00;5070206;28;20044;-42
2024/01/25 06:16:30;;;;;;;31.60;4.82;;;;;;;9.31;71.47;103026.44;5073781;28;20438;-41
2024/01/25 06:18:55;;;;;;;31.30;4.68;;;;;;;9.27;71.18;103024.50;5070542;28;20040;-43
2024/01/25 06:21:20;;;;;;;29.48;4.78;;;;;;;9.25;71.40;103034.81;5070445;28;20025;-41
2024/01/25 06:23:45;;;;;;;35.60;5.10;;;;;;;9.26;71.71;103043.53;5070706;28;20094;-42
2024/01/25 06:26:11;;;;;;;33.22;4.82;;;;;;;9.12;72.94;103034.97;5072320;28;20025;-43
2024/01/25 06:28:36;;;;;;;27.55;5.30;;;;;;;9.11;73.14;103030.59;5072921;28;20072;-41
2024/01/25 06:31:01;;;;;;;38.47;5.30;;;;;;;9.24;72.47;103026.94;5069717;28;20347;-41
2024/01/25 06:33:27;;;;;;;35.22;4.90;;;;;;;9.24;72.31;103035.63;5071592;28;20067;-41
2024/01/25 06:35:54;;;;;;;24.13;4.72;;;;;;;9.23;71.66;103026.03;5072392;28;20543;-41
2024/01/25 06:38:19;;;;;;;29.00;4.70;;;;;;;9.18;71.68;103035.31;5071859;28;20067;-41
2024/01/25 06:40:44;;;;;;;29.02;4.95;;;;;;;9.07;72.56;103025.16;5069816;28;20116;-41
2024/01/25 06:43:11;;;;;;;35.72;6.03;;;;;;;9.03;72.89;103039.69;5069913;28;20040;-41
2024/01/25 06:45:37;;;;;;;37.17;5.78;;;;;;;9.06;73.22;103034.66;5068075;28;20131;-41
2024/01/25 06:48:02;;;;;;;31.48;5.15;;;;;;;9.19;72.17;103024.09;5068814;28;20474;-42
2024/01/25 06:50:27;;;;;;;35.38;5.88;;;;;;;9.15;72.28;103011.72;5069451;28;20106;-41
2024/01/25 06:52:54;;;;;;;34.72;5.53;;;;;;;9.21;71.96;103009.44;5069245;28;20028;-42
2024/01/25 06:55:19;;;;;;;34.38;5.85;;;;;;;9.19;72.38;103010.19;5069687;28;20089;-40
2024/01/25 06:57:45;;;;;;;32.90;5.47;;;;;;;9.23;72.05;103020.81;5069248;28;20036;-41
2024/01/25 07:00:12;;;;;;;35.10;5.88;;;;;;;9.22;72.19;103012.94;5068898;28;20059;-42
2024/01/25 07:02:38;;;;;;;31.30;5.25;;;;;;;9.18;72.04;103037.00;5069763;28;20124;-41
2024/01/25 07:05:04;;;;;;;44.05;6.40;;;;;;;9.08;72.75;103038.25;5069213;28;20119;-39
2024/01/25 07:07:32;;;;;;;45.08;6.47;;;;;;;9.11;72.71;103040.09;5068640;28;20037;-44
2024/01/25 07:09:58;;;;;;;41.97;6.28;;;;;;;9.16;73.53;103044.72;5068828;28;20082;-42
2024/01/25 07:12:24;;;;;;;31.13;6.10;;;;;;;9.16;73.96;103036.94;5069362;28;20048;-41
2024/01/25 07:14:49;;;;;;;30.85;6.25;;;;;;;9.14;74.89;103033.38;5068997;28;20383;-44
2024/01/25 07:17:14;;;;;;;38.17;6.80;;;;;;;8.92;75.50;103033.91;5068677;28;20071;-41
2024/01/25 07:19:40;;;;;;;38.35;6.30;;;;;;;8.95;76.04;103036.69;5069131;28;20040;-42
2024/01/25 07:22:05;;;;;;;40.10;6.10;;;;;;;9.29;75.45;103039.38;5068601;28;20037;-43
2024/01/25 07:24:31;;;;;;;32.50;5.53;;;;;;;9.46;73.99;103037.66;5069061;28;20108;-41
2024/01/25 07:26:57;;;;;;;34.75;5.53;;;;;;;9.51;73.35;103040.50;5068193;28;20044;-41
2024/01/25 07:29:22;;;;;;;27.83;5.47;;;;;;;9.56;73.36;103047.75;5069476;28;20028;-41
2024/01/25 07:31:47;;;;;;;32.13;5.97;;;;;;;9.49;73.75;103042.13;5071874;28;20463;-42
2024/01/25 07:34:13;;;;;;;32.10;6.22;;;;;;;9.25;75.09;103042.63;5072358;28;20545;-40
2024/01/25 07:36:38;;;;;;;39.83;6.35;;;;;;;9.26;75.62;103033.13;5070207;28;20053;-43
2024/01/25 07:39:04;;;;;;;36.17;5.68;;;;;;;9.28;75.26;103029.78;5069250;28;20144;-42
2024/01/25 07:41:29;;;;;;;45.10;6.57;;;;;;;9.33;74.95;103024.81;5068927;28;20054;-41
2024/01/25 07:43:55;;;;;;;36.70;6.25;;;;;;;9.52;74.55;103031.84;5068445;28;20414;-43
2024/01/25 07:46:21;;;;;;;38.70;5.82;;;;;;;9.49;73.65;103040.41;5068767;28;20123;-42
2024/01/25 07:48:47;;;;;;;39.20;6.65;;;;;;;9.51;73.99;103054.44;5068944;28;20137;-44
2024/01/25 07:51:13;;;;;;;33.38;5.35;;;;;;;9.61;73.58;103053.19;5068312;28;20561;-44
2024/01/25 07:53:38;;;;;;;31.42;5.95;;;;;;;9.62;73.47;103047.16;5068898;28;20495;-43
2024/01/25 07:56:07;;;;;;;40.13;6.45;;;;;;;9.69;73.96;103039.75;5068027;28;20043;-45
2024/01/25 07:58:33;;;;;;;37.40;6.50;;;;;;;9.71;74.17;103030.28;5068697;28;20406;-46
2024/01/25 08:00:58;;;;;;;34.45;6.63;;;;;;;9.56;73.92;103018.22;5068827;28;20035;-41
2024/01/25 08:03:23;;;;;;;36.65;6.20;;;;;;;9.79;74.31;103015.06;5069282;28;20036;-43
2024/01/25 08:05:48;;;;;;;45.50;6.80;;;;;;;9.77;74.31;103017.56;5068988;28;20036;-43
2024/01/25 08:08:14;;;;;;;33.45;5.85;;;;;;;9.88;74.21;103012.03;5077888;22;20135;-46
2024/01/25 08:10:39;;;;;;;31.75;6.05;;;;;;;9.97;73.95;103012.47;5049703;28;20037;-47
2024/01/25 08:13:04;;;;;;;33.50;6.15;;;;;;;10.02;73.72;103014.50;5052732;28;20037;-45
2024/01/25 08:15:30;;;;;;;32.28;5.75;;;;;;;10.01;73.84;103019.63;5053598;28;20098;-45
2024/01/25 08:17:55;;;;;;;33.72;5.85;;;;;;;10.11;73.78;103017.56;5053596;28;20029;-48
2024/01/25 08:20:20;;;;;;;26.05;6.30;;;;;;;10.18;73.61;103026.63;5054494;28;20057;-51
2024/01/25 08:22:46;;;;;;;39.60;6.47;;;;;;;10.25;73.84;103039.09;5053840;28;20041;-45
2024/01/25 08:25:13;;;;;;;33.78;6.13;;;;;;;10.30;73.53;103040.25;5052547;28;20112;-47
2024/01/25 08:27:39;;;;;;;31.98;6.50;;;;;;;10.22;73.69;103043.28;5052539;28;20064;-45
2024/01/25 08:30:05;;;;;;;48.70;6.85;;;;;;;10.35;73.77;103040.47;5052828;28;20545;-45
2024/01/25 08:32:30;;;;;;;42.15;7.13;;;;;;;10.40;73.71;103033.75;5052616;28;20033;-46
2024/01/25 08:34:56;;;;;;;36.50;6.85;;;;;;;10.44;73.80;103033.97;5052794;28;20079;-46
2024/01/25 08:37:21;;;;;;;34.53;6.53;;;;;;;10.46;73.50;103029.72;5051871;28;20064;-47
2024/01/25 08:39:49;;;;;;;35.92;6.95;;;;;;;10.48;73.71;103045.47;5052137;28;20060;-45
2024/01/25 08:42:16;;;;;;;40.38;6.93;;;;;;;10.52;73.42;103042.16;5044059;28;20434;-45
2024/01/25 08:44:48;;;;;;;38.95;6.95;;;;;;;10.57;73.48;103038.06;5052484;28;20037;-47
2024/01/25 08:47:14;;;;;;;43.80;7.38;;;;;;;10.49;73.20;103034.22;5031693;28;20080;-47
2024/01/25 08:49:39;;;;;;;37.88;7.00;;;;;;;10.39;72.89;103043.28;5032167;28;20316;-48
2024/01/25 08:52:06;;;;;;;42.97;7.50;;;;;;;10.63;73.44;103030.53;5031675;28;20029;-44
2024/01/25 08:54:32;;;;;;;33.47;6.85;;;;;;;10.50;72.67;103028.16;5032393;28;20060;-45
2024/01/25 08:56:57;;;;;;;40.75;6.85;;;;;;;10.51;73.85;103027.34;5031728;28;20065;-50
2024/01/25 08:59:22;;;;;;;40.80;6.88;;;;;;;10.97;72.90;103025.19;5032506;28;20531;-48
2024/01/25 09:01:47;;;;;;;39.95;7.07;;;;;;;10.99;72.49;103023.50;5032368;28;20116;-46
2024/01/25 09:04:13;;;;;;;38.65;6.80;;;;;;;10.98;72.08;103020.00;5032504;28;20041;-46
2024/01/25 09:06:38;;;;;;;40.72;6.53;;;;;;;11.25;72.04;103022.09;5047589;28;20083;-47
2024/01/25 09:09:05;;;;;;;39.55;6.45;;;;;;;11.29;72.04;103008.34;5051704;28;20090;-46
2024/01/25 09:11:30;;;;;;;37.08;6.22;;;;;;;11.28;71.66;103006.56;5052877;28;20044;-47
2024/01/25 09:13:56;;;;;;;35.90;7.10;;;;;;;11.45;71.06;103004.69;5052462;28;20053;-47
2024/01/25 09:16:22;;;;;;;39.05;6.82;;;;;;;11.35;70.85;102996.44;5052571;28;20044;-46
2024/01/25 09:18:48;;;;;;;38.50;8.02;;;;;;;11.42;70.18;102997.59;5052672;28;20059;-44
2024/01/25 09:21:13;;;;;;;34.78;6.93;;;;;;;11.52;70.33;102994.59;5050692;28;20033;-49
2024/01/25 09:23:40;;;;;;;30.48;7.22;;;;;;;11.53;70.26;102990.22;5051200;28;20530;-47
2024/01/25 09:26:05;;;;;;;36.60;7.57;;;;;;;11.60;70.29;102984.44;5050343;28;20048;-46
2024/01/25 09:28:30;;;;;;;33.95;8.35;;;;;;;11.59;70.40;102994.00;5052732;28;20036;-49
2024/01/25 09:30:56;;;;;;;33.60;8.20;;;;;;;11.68;70.34;102999.63;5051704;28;20033;-47
2024/01/25 09:33:21;;;;;;;44.88;9.05;;;;;;;11.70;69.95;103000.59;5052814;28;20040;-46
2024/01/25 09:35:47;;;;;;;42.08;9.07;;;;;;;11.71;69.62;103004.97;5052825;28;20033;-46
2024/01/25 09:38:13;;;;;;;38.40;9.20;;;;;;;11.81;69.56;102990.63;5051160;28;20055;-47
2024/01/25 09:40:39;;;;;;;46.25;10.15;;;;;;;11.74;69.25;103010.38;5050799;28;20025;-46
2024/01/25 09:43:04;;;;;;;40.80;8.32;;;;;;;11.50;69.71;103011.91;5050417;28;20044;-47
2024/01/25 09:45:31;;;;;;;35.92;8.60;;;;;;;11.64;68.93;103002.06;5050593;28;20442;-46
2024/01/25 09:47:57;;;;;;;37.47;8.25;;;;;;;11.47;68.82;103000.41;5049503;28;20227;-46
2024/01/25 09:50:22;;;;;;;40.38;7.45;;;;;;;11.61;68.72;102991.47;5050568;28;20171;-51
2024/01/25 09:52:57;;;;;;;33.90;7.93;;;;;;;11.77;67.76;102986.97;5050983;28;20033;-48
2024/01/25 09:55:26;;;;;;;33.65;7.40;;;;;;;11.86;67.41;102990.81;5050276;28;20047;-47
2024/01/25 09:57:56;;;;;;;37.25;7.28;;;;;;;11.74;67.32;102993.81;5049795;28;20032;-46
2024/01/25 10:00:21;;;;;;;33.20;7.05;;;;;;;11.74;67.71;102999.91;5051902;28;20640;-45
2024/01/25 10:02:49;;;;;;;38.45;7.03;;;;;;;11.96;67.35;102991.25;5051487;28;20047;-46
2024/01/25 10:05:15;;;;;;;39.63;8.23;;;;;;;11.87;67.10;102993.50;5031253;28;20034;-45
2024/01/25 10:07:43;;;;;;;36.72;7.50;;;;;;;11.89;67.10;102991.84;5030781;28;20049;-47
2024/01/25 10:10:09;;;;;;;32.67;8.10;;;;;;;11.91;67.21;102992.78;5050325;28;20032;-45
2024/01/25 10:12:35;;;;;;;27.70;6.97;;;;;;;12.02;67.15;102987.97;5052309;28;20056;-49
2024/01/25 10:15:00;;;;;;;31.23;7.07;;;;;;;12.06;67.22;102988.19;5051445;28;20126;-48
2024/01/25 10:17:28;;;;;;;32.88;7.57;;;;;;;11.75;67.10;102985.13;5050648;28;20029;-47
2024/01/25 10:19:53;;;;;;;34.80;7.47;;;;;;;11.96;67.41;102978.16;5049986;28;20116;-50
2024/01/25 10:22:19;;;;;;;34.10;7.40;;;;;;;12.02;67.34;102978.41;5049955;28;20112;-50
2024/01/25 10:24:44;;;;;;;30.40;7.97;;;;;;;12.05;67.59;102981.19;5049132;28;20033;-49
2024/01/25 10:27:10;;;;;;;35.22;7.20;;;;;;;12.05;67.31;102982.91;5049286;28;20040;-47
2024/01/25 10:29:36;;;;;;;35.47;7.28;;;;;;;12.20;67.34;102994.84;5051362;28;20029;-47
2024/01/25 10:32:02;;;;;;;30.92;6.88;;;;;;;12.32;67.09;103001.44;5051262;28;20047;-50
2024/01/25 10:34:28;;;;;;;26.30;6.78;;;;;;;12.36;66.44;103001.63;5049910;28;20060;-48
2024/01/25 10:36:55;;;;;;;33.85;7.68;;;;;;;12.39;66.77;103006.06;5049505;28;20148;-46
2024/01/25 10:39:21;;;;;;;28.13;7.60;;;;;;;12.33;66.65;103001.47;5049836;28;20033;-47
2024/01/25 10:41:50;;;;;;;30.60;7.00;;;;;;;12.29;66.54;102996.97;5049749;28;20033;-47
2024/01/25 10:44:19;;;;;;;30.77;7.55;;;;;;;12.27;66.43;102990.78;5029552;28;20051;-51
2024/01/25 10:46:47;;;;;;;33.25;7.85;;;;;;;12.39;66.42;102988.63;5029204;28;20507;-48
2024/01/25 10:49:12;;;;;;;32.95;7.28;;;;;;;12.40;66.32;102979.97;5048912;28;20120;-47
2024/01/25 10:51:40;;;;;;;32.75;7.65;;;;;;;12.50;66.12;102966.41;5049849;28;20051;-49
2024/01/25 10:54:07;;;;;;;32.88;7.78;;;;;;;12.31;66.62;102961.31;5047799;28;20037;-48
2024/01/25 10:56:34;;;;;;;33.72;7.55;;;;;;;12.36;66.54;102970.22;5049496;28;20116;-46
2024/01/25 10:59:00;;;;;;;34.92;8.02;;;;;;;12.51;66.46;102949.88;5049796;28;20040;-48
2024/01/25 11:01:27;;;;;;;38.25;7.00;;;;;;;12.47;66.38;102965.41;5049689;28;20045;-45
2024/01/25 11:03:53;;;;;;;33.88;7.65;;;;;;;12.16;66.58;102953.75;5049349;28;20037;-45
2024/01/25 11:06:20;;;;;;;41.22;7.90;;;;;;;12.19;66.53;102950.38;5048712;28;20056;-49
2024/01/25 11:08:46;;;;;;;41.92;7.68;;;;;;;12.28;66.30;102953.31;5049107;28;20064;-45
2024/01/25 11:11:13;;;;;;;33.10;7.13;;;;;;;11.99;66.76;102946.06;5048974;28;20063;-49
2024/01/25 11:13:40;;;;;;;34.15;7.35;;;;;;;12.24;66.64;102954.06;5049581;28;20063;-49